Imam Khomeini International Airport


Codes: OIIE/IKA
Name: Imam Khomeini International Airport
City: Tehran
Country: Iran
Elevation: 3305 ft.
Website:
Wikipedia:

Photos at Imam Khomeini International Airport


   Photos courtesy of SpottingLog. You can add your own sightings and photos by signing up for a free trial today.



No photos found.

Weather at Imam Khomeini International Airport


Time (UTC)DescriptionTempratureWindCloud coverageVisibilityPressureHumidity
16-Jun-2024 09:00Few Clouds35°C4 mph, NW20%10000m1011hPa17%
16-Jun-2024 12:00Few Clouds36°C7 mph, NW14%10000m1009hPa16%
16-Jun-2024 15:00Light Rain33°C20 mph, W71%10000m1007hPa19%
16-Jun-2024 18:00Overcast Clouds29°C29 mph, NW98%10000m1009hPa29%
16-Jun-2024 21:00Broken Clouds27°C18 mph, NW55%10000m1008hPa40%
17-Jun-2024 00:00Scattered Clouds26°C13 mph, NW34%10000m1009hPa41%
17-Jun-2024 03:00Clear Sky27°C9 mph, NW0%10000m1011hPa35%
17-Jun-2024 06:00Clear Sky31°C9 mph, NW1%10000m1010hPa28%
17-Jun-2024 09:00Clear Sky35°C9 mph, NW3%10000m1009hPa18%
17-Jun-2024 12:00Clear Sky37°C11 mph, NW2%10000m1007hPa13%
17-Jun-2024 15:00Clear Sky36°C13 mph, NW1%10000m1006hPa15%
17-Jun-2024 18:00Clear Sky34°C9 mph, NW1%10000m1008hPa17%
17-Jun-2024 21:00Clear Sky29°C4 mph, NW1%10000m1010hPa35%
18-Jun-2024 00:00Clear Sky28°C7 mph, NW3%10000m1011hPa42%
18-Jun-2024 03:00Clear Sky28°C4 mph, NW4%10000m1012hPa36%
18-Jun-2024 06:00Clear Sky33°C9 mph, SE4%10000m1011hPa21%
18-Jun-2024 09:00Clear Sky35°C4 mph, SE0%10000m1010hPa17%
18-Jun-2024 12:00Clear Sky37°C2 mph, NE1%10000m1007hPa12%
18-Jun-2024 15:00Few Clouds37°C4 mph, N11%10000m1007hPa10%
18-Jun-2024 18:00Scattered Clouds32°C11 mph, W47%10000m1010hPa28%
18-Jun-2024 21:00Broken Clouds30°C13 mph, NW71%10000m1010hPa34%
19-Jun-2024 00:00Scattered Clouds28°C11 mph, NW45%10000m1010hPa38%
19-Jun-2024 03:00Scattered Clouds30°C2 mph, SE26%10000m1011hPa33%
19-Jun-2024 06:00Few Clouds33°C13 mph, SE15%10000m1011hPa18%
19-Jun-2024 09:00Broken Clouds36°C11 mph, SE59%10000m1009hPa14%
19-Jun-2024 12:00Scattered Clouds37°C7 mph, E36%10000m1006hPa12%
19-Jun-2024 15:00Few Clouds37°C9 mph, SE11%10000m1006hPa12%
19-Jun-2024 18:00Light Rain27°C29 mph, W56%10000m1011hPa42%
19-Jun-2024 21:00Light Rain30°C16 mph, NE97%10000m1010hPa28%
20-Jun-2024 00:00Broken Clouds29°C9 mph, NE80%10000m1009hPa28%
20-Jun-2024 03:00Clear Sky28°C11 mph, NW8%10000m1010hPa35%
20-Jun-2024 06:00Clear Sky32°C2 mph, NW5%10000m1009hPa25%
20-Jun-2024 09:00Clear Sky34°C2 mph, S2%10000m1007hPa18%
20-Jun-2024 12:00Clear Sky36°C4 mph, NW1%10000m1004hPa15%
20-Jun-2024 15:00Clear Sky36°C4 mph, N3%10000m1004hPa15%
20-Jun-2024 18:00Broken Clouds33°C18 mph, NW51%10000m1006hPa23%
20-Jun-2024 21:00Broken Clouds31°C11 mph, NW60%10000m1006hPa30%
21-Jun-2024 00:00Broken Clouds28°C11 mph, NW66%10000m1007hPa36%
21-Jun-2024 03:00Scattered Clouds29°C9 mph, NW29%10000m1008hPa31%
21-Jun-2024 06:00Few Clouds32°C7 mph, SE17%10000m1008hPa23%